Darstellungsparameter: Aktuell verwendete Einstellungen:
Skalierung der Graphiken ... ?
xyx+y,   Skalierungsfaktor:      Skalierung: Modus: x, Faktor: 1
Darstellungszeitraum ... ?
Vom - - bis: - -   Zeitraum: 15.11.2007 - 17.11.2007
Min/Max/Avg-Anzeige ... ?
Zeige MMA aktuell
Zeige MMA Monat
Zeige MMA alles
Zeige --A aktuell
Zeige --A Monat
Zeige --A alles
Keine MMA-Anzeige
MMA:
Average (ber die Originaldaten)
MMA-Basis: 17.04.2019 - 19.05.2019
Quicknavigation für Darstellung... ?
Tage:      1T, 2T, 3T, 5T -1T -2T -3T -5T +1T +2T +3T +5T
Wochen: 1W, 2W, 3W -1W -2W -3W +1W +2W +3W
Monate: 1M, 3M, 6M -1M -3M -6M +1M +3M +6M
Jahre:    1J, 3J, 5J, 10J -1J -3J -5J -10J +1J +3J +5J +10J
Nutze für die Darstellung ... ?
Originaldaten oder Mittelwerte auf ...
Stundenbasis Tagesbasis Wochenbasis
Monatsbasis Jahresbasis      Datenbasis: Original-Daten
Darstellen als:
Statistik (Auto) Statistik J:M      Darstellung:
Zur Graphik,    zurück zur Übersicht aller Sensoren.
 
Tabellarische Datenbersicht: ?
 
Sensor: Nr:Datum:Temp:Abs-Feuchte:Windchill:Wind:
Aussen-T/F 1 15-11-2007 00:09:02 0.6 C 3.99 g/m*3 0.6 C 0 km/h
2 15-11-2007 00:21:02 0.3 C 3.96 g/m*3 0.3 C 0 km/h
3 15-11-2007 00:33:02 0.3 C 4.01 g/m*3 0.3 C 0 km/h
4 15-11-2007 00:45:02 0.4 C 4.03 g/m*3 0.4 C 0 km/h
5 15-11-2007 00:57:02 0.4 C 3.98 g/m*3 0.4 C 0 km/h
6 15-11-2007 01:09:02 0.3 C 4.01 g/m*3 0.3 C 0 km/h
7 15-11-2007 01:21:02 0.4 C 4.03 g/m*3 0.4 C 0 km/h
8 15-11-2007 01:33:02 0.4 C 3.98 g/m*3 0.4 C 0 km/h
9 15-11-2007 01:45:01 0.5 C 4.01 g/m*3 0.5 C 0 km/h
10 15-11-2007 01:57:01 0.6 C 4.04 g/m*3 0.6 C 0 km/h
11 15-11-2007 02:09:02 0.6 C 4.04 g/m*3 0.6 C 0 km/h
12 15-11-2007 02:21:02 0.7 C 4.07 g/m*3 0.7 C 0 km/h
13 15-11-2007 02:33:02 0.8 C 4.04 g/m*3 0.8 C 0 km/h
14 15-11-2007 02:46:03 0.8 C 4.04 g/m*3 0.8 C 0 km/h
15 15-11-2007 02:58:03 0.7 C 4.02 g/m*3 0.7 C 0 km/h
16 15-11-2007 03:10:03 0.4 C 3.93 g/m*3 0.4 C 0 km/h
17 15-11-2007 03:22:03 0.2 C 3.93 g/m*3 0.2 C 0 km/h
18 15-11-2007 03:34:02 0.4 C 4.03 g/m*3 0.4 C 0 km/h
19 15-11-2007 03:46:02 0.2 C 3.93 g/m*3 0.2 C 0 km/h
20 15-11-2007 03:58:02 0.2 C 3.98 g/m*3 0.2 C 0 km/h
21 15-11-2007 04:10:03 0.2 C 3.98 g/m*3 0.2 C 0 km/h
22 15-11-2007 04:22:03 0.2 C 3.98 g/m*3 0.2 C 0 km/h
23 15-11-2007 04:34:03 0.4 C 4.03 g/m*3 0.4 C 0 km/h
24 15-11-2007 04:46:01 0.4 C 3.98 g/m*3 0.4 C 0 km/h
25 15-11-2007 04:58:01 0.4 C 3.98 g/m*3 0.4 C 0 km/h
Sensor: Nr:Datum:Temp:Abs-Feuchte:Windchill:Wind:
Aussen-T/F 26 15-11-2007 05:10:01 0.3 C 3.96 g/m*3 0.3 C 0 km/h
27 15-11-2007 05:22:01 0.3 C 3.96 g/m*3 0.3 C 0 km/h
28 15-11-2007 05:34:01 0.4 C 3.98 g/m*3 0.4 C 0 km/h
29 15-11-2007 05:46:02 0.5 C 4.01 g/m*3 0.5 C 0 km/h
30 15-11-2007 05:58:02 0.5 C 4.01 g/m*3 0.5 C 0 km/h
31 15-11-2007 06:10:02 0.5 C 3.96 g/m*3 0.5 C 0 km/h
32 15-11-2007 06:22:02 0.3 C 3.86 g/m*3 0.3 C 0 km/h
33 15-11-2007 06:34:02 0 C 3.83 g/m*3 0 C 0 km/h
34 15-11-2007 06:46:01 0.4 C 3.88 g/m*3 0.4 C 0 km/h
35 15-11-2007 06:58:01 0.7 C 3.76 g/m*3 0.7 C 0 km/h
36 15-11-2007 07:10:01 0.6 C 3.74 g/m*3 0.6 C 0 km/h
37 15-11-2007 07:22:02 0.6 C 3.79 g/m*3 0.6 C 0 km/h
38 15-11-2007 07:34:02 0.5 C 3.76 g/m*3 0.5 C 0 km/h
39 15-11-2007 07:46:02 0.5 C 3.76 g/m*3 0.5 C 0 km/h
40 15-11-2007 07:58:02 0.6 C 3.79 g/m*3 0.6 C 0 km/h
41 15-11-2007 08:10:03 0.6 C 3.79 g/m*3 0.6 C 0 km/h
42 15-11-2007 08:22:03 0.7 C 3.76 g/m*3 0.7 C 0 km/h
43 15-11-2007 08:34:03 0.7 C 3.76 g/m*3 0.7 C 0 km/h
44 15-11-2007 08:46:02 0.7 C 3.81 g/m*3 0.7 C 0 km/h
45 15-11-2007 08:58:02 0.8 C 3.84 g/m*3 0.8 C 0 km/h
46 15-11-2007 09:10:02 0.8 C 3.84 g/m*3 0.8 C 0 km/h
47 15-11-2007 09:22:02 0.8 C 3.79 g/m*3 0.8 C 0 km/h
48 15-11-2007 09:34:02 1 C 3.84 g/m*3 1 C 0 km/h
49 15-11-2007 09:46:01 1.1 C 3.87 g/m*3 1.1 C 0 km/h
50 15-11-2007 09:58:01 1.3 C 3.92 g/m*3 1.3 C 0 km/h
Sensor: Nr:Datum:Temp:Abs-Feuchte:Windchill:Wind:
Aussen-T/F 51 15-11-2007 10:10:01 1.4 C 3.84 g/m*3 1.4 C 0 km/h
52 15-11-2007 10:22:01 1.5 C 3.87 g/m*3 1.5 C 0 km/h
53 15-11-2007 10:34:01 1.7 C 3.87 g/m*3 1.7 C 0 km/h
54 15-11-2007 10:46:02 1.8 C 3.89 g/m*3 1.8 C 0 km/h
55 15-11-2007 10:58:02 2.3 C 3.91 g/m*3 2.3 C 0 km/h
56 15-11-2007 11:10:02 3 C 3.92 g/m*3 3 C 0 km/h
57 15-11-2007 11:22:02 3.1 C 3.77 g/m*3 3.1 C 0 km/h
58 15-11-2007 11:34:02 2.4 C 3.71 g/m*3 2.4 C 0 km/h
59 15-11-2007 11:46:02 2.7 C 3.9 g/m*3 2.7 C 0 km/h
60 15-11-2007 11:58:02 3.3 C 3.88 g/m*3 3.3 C 0 km/h
61 15-11-2007 12:10:02 3.3 C 3.64 g/m*3 3.3 C 0 km/h
62 15-11-2007 12:22:02 3.9 C 3.79 g/m*3 3.9 C 0 km/h
63 15-11-2007 12:34:02 4.5 C 3.75 g/m*3 4.5 C 0 km/h
64 15-11-2007 12:46:03 5.1 C 3.63 g/m*3 5.1 C 0 km/h
65 15-11-2007 12:58:03 4.1 C 3.46 g/m*3 4.1 C 0 km/h
66 15-11-2007 13:10:03 4.6 C 3.51 g/m*3 4.6 C 0 km/h
67 15-11-2007 13:22:03 5.4 C 3.49 g/m*3 5.4 C 0 km/h
68 15-11-2007 13:34:03 6.2 C 3.38 g/m*3 6.2 C 0 km/h
69 15-11-2007 13:46:02 6.6 C 3.17 g/m*3 6.6 C 0 km/h
70 15-11-2007 13:58:02 4.7 C 3.33 g/m*3 4.7 C 0 km/h
71 15-11-2007 14:10:02 4.5 C 3.42 g/m*3 4.5 C 0 km/h
72 15-11-2007 14:22:02 4.6 C 3.57 g/m*3 4.6 C 0 km/h
73 15-11-2007 14:34:02 4.4 C 3.46 g/m*3 4.4 C 0 km/h
74 15-11-2007 14:46:01 4.4 C 3.53 g/m*3 4.4 C 0 km/h
75 15-11-2007 14:58:01 4.3 C 3.44 g/m*3 4.3 C 0 km/h
Sensor: Nr:Datum:Temp:Abs-Feuchte:Windchill:Wind:
Aussen-T/F 76 15-11-2007 15:10:01 3.7 C 3.74 g/m*3 3.7 C 0 km/h
77 15-11-2007 15:22:02 3.6 C 3.9 g/m*3 3.6 C 0 km/h
78 15-11-2007 15:34:02 3.6 C 3.9 g/m*3 3.6 C 0 km/h
79 15-11-2007 15:46:03 3.2 C 3.86 g/m*3 3.2 C 0 km/h
80 15-11-2007 15:58:03 3.2 C 3.98 g/m*3 3.2 C 0 km/h
81 15-11-2007 16:10:03 3.2 C 4.04 g/m*3 3.2 C 0 km/h
82 15-11-2007 16:22:03 3 C 3.98 g/m*3 3 C 0 km/h
83 15-11-2007 16:34:03 2.9 C 4.07 g/m*3 2.9 C 0 km/h
84 15-11-2007 16:46:02 2.8 C 4.11 g/m*3 2.8 C 0 km/h
85 15-11-2007 16:58:02 2.8 C 4.11 g/m*3 2.8 C 0 km/h
86 15-11-2007 17:10:02 2.9 C 3.78 g/m*3 2.9 C 0 km/h
87 15-11-2007 17:22:02 2.9 C 3.48 g/m*3 2.9 C 0 km/h
88 15-11-2007 17:34:03 2.9 C 3.43 g/m*3 2.9 C 0 km/h
89 15-11-2007 17:46:02 2.6 C 3.36 g/m*3 2.6 C 0 km/h
90 15-11-2007 17:58:02 2.1 C 3.36 g/m*3 2.1 C 0 km/h
91 15-11-2007 18:10:02 1.5 C 3.44 g/m*3 1.5 C 0 km/h
92 15-11-2007 18:22:03 0.8 C 3.58 g/m*3 0.8 C 0 km/h
93 15-11-2007 18:34:03 0.5 C 3.61 g/m*3 0.5 C 0 km/h
94 15-11-2007 18:46:01 0.4 C 3.64 g/m*3 0.4 C 0 km/h
95 15-11-2007 18:58:01 0.4 C 3.69 g/m*3 0.4 C 0 km/h
96 15-11-2007 19:10:01 0.2 C 3.64 g/m*3 0.2 C 0 km/h
97 15-11-2007 19:22:02 0.1 C 3.66 g/m*3 0.1 C 0 km/h
98 15-11-2007 19:34:02 0 C 3.63 g/m*3 0 C 0 km/h
99 15-11-2007 19:46:03 -0.1 C 3.66 g/m*3 -0.1 C 0 km/h
100 15-11-2007 19:58:03 0.2 C 3.78 g/m*3 0.2 C 0 km/h
Sensor: Nr:Datum:Temp:Abs-Feuchte:Windchill:Wind:
Aussen-T/F 101 15-11-2007 20:10:02 0.3 C 3.81 g/m*3 0.3 C 0 km/h
102 15-11-2007 20:22:02 0.5 C 3.81 g/m*3 0.5 C 0 km/h
103 15-11-2007 20:34:02 0.5 C 3.81 g/m*3 0.5 C 0 km/h
104 15-11-2007 20:46:02 0.4 C 3.74 g/m*3 0.4 C 0 km/h
105 15-11-2007 20:58:03 0.1 C 3.66 g/m*3 0.1 C 0 km/h
106 15-11-2007 21:10:02 0 C 3.68 g/m*3 0 C 0 km/h
107 15-11-2007 21:22:02 0.3 C 3.81 g/m*3 0.3 C 0 km/h
108 15-11-2007 21:34:02 0.3 C 3.81 g/m*3 0.3 C 0 km/h
109 15-11-2007 21:46:01 0.2 C 3.73 g/m*3 0.2 C 0 km/h
110 15-11-2007 21:58:01 0 C 3.68 g/m*3 0 C 0 km/h
111 15-11-2007 22:10:02 -0.2 C 3.63 g/m*3 -0.2 C 0 km/h
112 15-11-2007 22:22:02 -0.5 C 3.6 g/m*3 -0.5 C 0 km/h
113 15-11-2007 22:34:02 -0.7 C 3.6 g/m*3 -0.7 C 0 km/h
114 15-11-2007 22:46:02 -0.8 C 3.62 g/m*3 -0.8 C 0 km/h
115 15-11-2007 22:58:03 -0.9 C 3.64 g/m*3 -0.9 C 0 km/h
116 15-11-2007 23:10:02 -1.1 C 3.59 g/m*3 -1.1 C 0 km/h
117 15-11-2007 23:22:02 -1.3 C 3.59 g/m*3 -1.3 C 0 km/h
118 15-11-2007 23:34:01 -1.6 C 3.55 g/m*3 -1.6 C 0 km/h
119 15-11-2007 23:46:03 -1.8 C 3.51 g/m*3 -1.8 C 0 km/h
120 15-11-2007 23:58:03 -1.8 C 3.55 g/m*3 -1.8 C 0 km/h
121 16-11-2007 00:10:02 -2.1 C 3.47 g/m*3 -2.1 C 0 km/h
122 16-11-2007 00:22:03 -1.9 C 3.61 g/m*3 -1.9 C 0 km/h
123 16-11-2007 00:34:02 -1.6 C 3.73 g/m*3 -1.6 C 0 km/h
124 16-11-2007 00:46:02 -1.6 C 3.77 g/m*3 -1.6 C 0 km/h
125 16-11-2007 00:58:02 -1.8 C 3.72 g/m*3 -1.8 C 0 km/h
Sensor: Nr:Datum:Temp:Abs-Feuchte:Windchill:Wind:
Aussen-T/F 126 16-11-2007 01:10:02 -2 C 3.67 g/m*3 -2 C 0 km/h
127 16-11-2007 01:22:02 -2 C 3.67 g/m*3 -2 C 0 km/h
128 16-11-2007 01:34:02 -1.9 C 3.69 g/m*3 -1.9 C 0 km/h
129 16-11-2007 01:46:02 -2.1 C 3.64 g/m*3 -2.1 C 0 km/h
130 16-11-2007 01:58:02 -2.1 C 3.68 g/m*3 -2.1 C 0 km/h
131 16-11-2007 02:10:02 -2.3 C 3.63 g/m*3 -2.3 C 0 km/h
132 16-11-2007 02:22:02 -2.3 C 3.63 g/m*3 -2.3 C 0 km/h
133 16-11-2007 02:34:02 -2.4 C 3.65 g/m*3 -2.4 C 0 km/h
134 16-11-2007 02:47:04 -2.5 C 3.62 g/m*3 -2.5 C 0 km/h
135 16-11-2007 02:59:04 -2.6 C 3.6 g/m*3 -2.6 C 0 km/h
136 16-11-2007 03:11:04 -2.6 C 3.6 g/m*3 -2.6 C 0 km/h
137 16-11-2007 03:23:04 -2.7 C 3.57 g/m*3 -2.7 C 0 km/h
138 16-11-2007 03:35:02 -2.7 C 3.61 g/m*3 -2.7 C 0 km/h
139 16-11-2007 03:47:02 -3 C 3.54 g/m*3 -3 C 0 km/h
140 16-11-2007 03:59:02 -2.9 C 3.56 g/m*3 -2.9 C 0 km/h
141 16-11-2007 04:11:02 -2.8 C 3.59 g/m*3 -2.8 C 0 km/h
142 16-11-2007 04:23:03 -3 C 3.54 g/m*3 -3 C 0 km/h
143 16-11-2007 04:35:02 -3 C 3.54 g/m*3 -3 C 0 km/h
144 16-11-2007 04:47:03 -3.1 C 3.55 g/m*3 -3.1 C 0 km/h
145 16-11-2007 04:59:03 -3.3 C 3.5 g/m*3 -3.3 C 0 km/h
146 16-11-2007 05:11:02 -3.4 C 3.47 g/m*3 -3.4 C 0 km/h
147 16-11-2007 05:23:02 -3.4 C 3.47 g/m*3 -3.4 C 0 km/h
148 16-11-2007 05:35:02 -3.5 C 3.45 g/m*3 -3.5 C 0 km/h
149 16-11-2007 05:47:02 -3.6 C 3.43 g/m*3 -3.6 C 0 km/h
150 16-11-2007 05:59:02 -3.6 C 3.43 g/m*3 -3.6 C 0 km/h
Sensor: Nr:Datum:Temp:Abs-Feuchte:Windchill:Wind:
Aussen-T/F 151 16-11-2007 06:11:02 -3.5 C 3.49 g/m*3 -3.5 C 0 km/h
152 16-11-2007 06:23:02 -3.5 C 3.49 g/m*3 -3.5 C 0 km/h
153 16-11-2007 06:35:02 -3.6 C 3.46 g/m*3 -3.6 C 0 km/h
154 16-11-2007 06:47:02 -3.7 C 3.4 g/m*3 -3.7 C 0 km/h
155 16-11-2007 06:59:03 -4 C 3.33 g/m*3 -4 C 0 km/h
156 16-11-2007 07:11:02 -3.9 C 3.35 g/m*3 -3.9 C 0 km/h
157 16-11-2007 07:23:02 -3.9 C 3.35 g/m*3 -3.9 C 0 km/h
158 16-11-2007 07:35:02 -3.9 C 3.35 g/m*3 -3.9 C 0 km/h
159 16-11-2007 07:47:02 -3.8 C 3.38 g/m*3 -3.8 C 0 km/h
160 16-11-2007 07:59:02 -3.8 C 3.38 g/m*3 -3.8 C 0 km/h
161 16-11-2007 08:11:02 -3.8 C 3.38 g/m*3 -3.8 C 0 km/h
162 16-11-2007 08:23:02 -3.5 C 3.49 g/m*3 -3.5 C 0 km/h
163 16-11-2007 08:35:02 -3.5 C 3.49 g/m*3 -3.5 C 0 km/h
164 16-11-2007 08:47:02 -3.4 C 3.47 g/m*3 -3.4 C 0 km/h
165 16-11-2007 08:59:02 -3.1 C 3.55 g/m*3 -3.1 C 0 km/h
166 16-11-2007 09:11:01 -2.9 C 3.6 g/m*3 -2.9 C 0 km/h
167 16-11-2007 09:23:01 -2.6 C 3.72 g/m*3 -2.6 C 0 km/h
168 16-11-2007 09:35:01 -2.7 C 3.65 g/m*3 -2.7 C 0 km/h
169 16-11-2007 09:47:02 -2.9 C 3.6 g/m*3 -2.9 C 0 km/h
170 16-11-2007 09:59:02 -2.7 C 3.65 g/m*3 -2.7 C 0 km/h
171 16-11-2007 10:11:02 -2.6 C 3.64 g/m*3 -2.6 C 0 km/h
172 16-11-2007 10:23:02 -2.3 C 3.71 g/m*3 -2.3 C 0 km/h
173 16-11-2007 10:35:02 -1.7 C 3.83 g/m*3 -1.7 C 0 km/h
174 16-11-2007 10:47:02 -1.3 C 3.94 g/m*3 -1.3 C 0 km/h
175 16-11-2007 10:59:02 -1 C 3.98 g/m*3 -1 C 0 km/h
Sensor: Nr:Datum:Temp:Abs-Feuchte:Windchill:Wind:
Aussen-T/F 176 16-11-2007 11:11:02 -0.7 C 3.97 g/m*3 -0.7 C 0 km/h
177 16-11-2007 11:23:02 -0.7 C 3.83 g/m*3 -0.7 C 0 km/h
178 16-11-2007 11:35:02 -0.5 C 3.88 g/m*3 -0.5 C 0 km/h
179 16-11-2007 11:47:02 -0.3 C 3.94 g/m*3 -0.3 C 0 km/h
180 16-11-2007 11:59:02 -0.2 C 3.87 g/m*3 -0.2 C 0 km/h
181 16-11-2007 12:11:02 0.1 C 3.95 g/m*3 0.1 C 0 km/h
182 16-11-2007 12:23:02 0.5 C 4.01 g/m*3 0.5 C 0 km/h
183 16-11-2007 12:35:02 0.9 C 3.97 g/m*3 0.9 C 0 km/h
184 16-11-2007 12:47:02 1.1 C 3.97 g/m*3 1.1 C 0 km/h
185 16-11-2007 12:59:02 1.8 C 4.06 g/m*3 1.8 C 0 km/h
186 16-11-2007 13:11:02 1.5 C 3.71 g/m*3 1.5 C 0 km/h
187 16-11-2007 13:23:02 1.8 C 3.89 g/m*3 1.8 C 0 km/h
188 16-11-2007 13:35:02 1.9 C 3.81 g/m*3 1.9 C 0 km/h
189 16-11-2007 13:47:02 2.2 C 3.89 g/m*3 2.2 C 0 km/h
190 16-11-2007 13:59:02 2.7 C 4.02 g/m*3 2.7 C 0 km/h
191 16-11-2007 14:11:02 2.7 C 3.96 g/m*3 2.7 C 0 km/h
192 16-11-2007 14:23:02 2.6 C 3.88 g/m*3 2.6 C 0 km/h
193 16-11-2007 14:35:02 3.3 C 4.06 g/m*3 3.3 C 0 km/h
194 16-11-2007 14:47:02 3.3 C 3.82 g/m*3 3.3 C 0 km/h
195 16-11-2007 14:59:02 3.2 C 3.92 g/m*3 3.2 C 0 km/h
196 16-11-2007 15:11:02 3 C 3.81 g/m*3 3 C 0 km/h
197 16-11-2007 15:23:02 2.9 C 3.9 g/m*3 2.9 C 0 km/h
198 16-11-2007 15:35:02 2.7 C 3.9 g/m*3 2.7 C 0 km/h
199 16-11-2007 15:47:02 2.5 C 3.97 g/m*3 2.5 C 0 km/h
200 16-11-2007 15:59:02 2.5 C 4.02 g/m*3 2.5 C 0 km/h
Sensor: Nr:Datum:Temp:Abs-Feuchte:Windchill:Wind:
Aussen-T/F 201 16-11-2007 16:11:02 2.3 C 4.03 g/m*3 2.3 C 0 km/h
202 16-11-2007 16:23:02 2.1 C 4.03 g/m*3 2.1 C 0 km/h
203 16-11-2007 16:35:02 2 C 4.06 g/m*3 2 C 0 km/h
204 16-11-2007 16:47:03 1.6 C 4.06 g/m*3 1.6 C 0 km/h
205 16-11-2007 16:59:03 1.5 C 4.08 g/m*3 1.5 C 0 km/h
206 16-11-2007 17:11:02 1.5 C 4.08 g/m*3 1.5 C 0 km/h
207 16-11-2007 17:23:02 1.4 C 4.11 g/m*3 1.4 C 0 km/h
208 16-11-2007 17:35:02 1.4 C 4.11 g/m*3 1.4 C 0 km/h
209 16-11-2007 17:47:02 1.3 C 4.08 g/m*3 1.3 C 0 km/h
210 16-11-2007 17:59:02 1.2 C 4.05 g/m*3 1.2 C 0 km/h
211 16-11-2007 18:11:02 1.1 C 4.08 g/m*3 1.1 C 0 km/h
212 16-11-2007 18:23:02 1.1 C 4.08 g/m*3 1.1 C 0 km/h
213 16-11-2007 18:35:03 1 C 4.05 g/m*3 1 C 0 km/h
214 16-11-2007 18:47:03 1 C 4.1 g/m*3 1 C 0 km/h
215 16-11-2007 18:59:03 1 C 4.1 g/m*3 1 C 0 km/h
216 16-11-2007 19:11:02 0.9 C 4.12 g/m*3 0.9 C 0 km/h
217 16-11-2007 19:23:03 0.9 C 4.12 g/m*3 0.9 C 0 km/h
218 16-11-2007 19:35:03 0.9 C 4.12 g/m*3 0.9 C 0 km/h
219 16-11-2007 19:47:03 0.7 C 4.07 g/m*3 0.7 C 0 km/h
220 16-11-2007 19:59:03 0.7 C 4.12 g/m*3 0.7 C 0 km/h
221 16-11-2007 20:11:03 0.7 C 4.12 g/m*3 0.7 C 0 km/h
222 16-11-2007 20:23:02 0.7 C 4.17 g/m*3 0.7 C 0 km/h
223 16-11-2007 20:35:02 0.8 C 4.15 g/m*3 0.8 C 0 km/h
224 16-11-2007 20:47:02 1 C 4.15 g/m*3 1 C 0 km/h
225 16-11-2007 20:59:02 1 C 4.1 g/m*3 1 C 0 km/h
Sensor: Nr:Datum:Temp:Abs-Feuchte:Windchill:Wind:
Aussen-T/F 226 16-11-2007 21:11:02 1 C 4.1 g/m*3 1 C 0 km/h
227 16-11-2007 21:23:02 1 C 4.1 g/m*3 1 C 0 km/h
228 16-11-2007 21:35:02 1 C 4.1 g/m*3 1 C 0 km/h
229 16-11-2007 21:47:02 0.9 C 4.12 g/m*3 0.9 C 0 km/h
230 16-11-2007 21:59:02 0.9 C 4.18 g/m*3 0.9 C 0 km/h
231 16-11-2007 22:11:02 0.8 C 4.2 g/m*3 0.8 C 0 km/h
232 16-11-2007 22:23:02 0.8 C 4.2 g/m*3 0.8 C 0 km/h
233 16-11-2007 22:35:02 0.9 C 4.23 g/m*3 0.9 C 0 km/h
234 16-11-2007 22:47:01 0.9 C 4.18 g/m*3 0.9 C 0 km/h
235 16-11-2007 22:59:01 0.9 C 4.18 g/m*3 0.9 C 0 km/h
236 16-11-2007 23:11:01 1 C 4.15 g/m*3 1 C 0 km/h
237 16-11-2007 23:23:01 0.9 C 4.18 g/m*3 0.9 C 0 km/h
238 16-11-2007 23:35:01 0.9 C 4.18 g/m*3 0.9 C 0 km/h
239 16-11-2007 23:47:02 0.9 C 4.18 g/m*3 0.9 C 0 km/h
240 16-11-2007 23:59:02 1 C 4.2 g/m*3 1 C 0 km/h
241 17-11-2007 00:11:02 1 C 4.2 g/m*3 1 C 0 km/h
242 17-11-2007 00:23:03 1 C 4.2 g/m*3 1 C 0 km/h
243 17-11-2007 00:35:02 1.1 C 4.18 g/m*3 1.1 C 0 km/h
244 17-11-2007 00:47:02 1.1 C 4.18 g/m*3 1.1 C 0 km/h
245 17-11-2007 00:59:02 1.1 C 4.18 g/m*3 1.1 C 0 km/h
246 17-11-2007 01:11:02 1.2 C 4.21 g/m*3 1.2 C 0 km/h
247 17-11-2007 01:23:01 1.2 C 4.21 g/m*3 1.2 C 0 km/h
248 17-11-2007 01:35:01 1.3 C 4.19 g/m*3 1.3 C 0 km/h
249 17-11-2007 01:47:02 1.4 C 4.21 g/m*3 1.4 C 0 km/h
250 17-11-2007 01:59:02 1.4 C 4.21 g/m*3 1.4 C 0 km/h
Sensor: Nr:Datum:Temp:Abs-Feuchte:Windchill:Wind:
Aussen-T/F 251 17-11-2007 02:11:02 1.4 C 4.16 g/m*3 1.4 C 0 km/h
252 17-11-2007 02:23:02 1.5 C 4.14 g/m*3 1.5 C 0 km/h
253 17-11-2007 02:35:02 1.5 C 4.14 g/m*3 1.5 C 0 km/h
254 17-11-2007 02:48:03 1.5 C 4.14 g/m*3 1.5 C 0 km/h
255 17-11-2007 03:00:04 1.5 C 4.19 g/m*3 1.5 C 0 km/h
256 17-11-2007 03:12:04 1.5 C 4.19 g/m*3 1.5 C 0 km/h
257 17-11-2007 03:24:04 1.6 C 4.16 g/m*3 1.6 C 0 km/h
258 17-11-2007 03:36:02 1.6 C 4.22 g/m*3 1.6 C 0 km/h
259 17-11-2007 03:48:02 1.7 C 4.14 g/m*3 1.7 C 0 km/h
260 17-11-2007 04:00:02 1.7 C 4.19 g/m*3 1.7 C 0 km/h
261 17-11-2007 04:12:02 1.7 C 4.14 g/m*3 1.7 C 0 km/h
262 17-11-2007 04:24:02 1.7 C 4.19 g/m*3 1.7 C 0 km/h
263 17-11-2007 04:36:02 1.7 C 4.19 g/m*3 1.7 C 0 km/h
264 17-11-2007 04:48:02 1.7 C 4.19 g/m*3 1.7 C 0 km/h
265 17-11-2007 05:00:02 1.9 C 4.3 g/m*3 1.9 C 0 km/h
266 17-11-2007 05:12:01 1.9 C 4.3 g/m*3 1.9 C 0 km/h
267 17-11-2007 05:24:01 1.9 C 4.25 g/m*3 1.9 C 0 km/h
268 17-11-2007 05:36:01 1.8 C 4.28 g/m*3 1.8 C 0 km/h
269 17-11-2007 05:48:02 1.8 C 4.28 g/m*3 1.8 C 0 km/h
270 17-11-2007 06:00:02 1.9 C 4.3 g/m*3 1.9 C 0 km/h
271 17-11-2007 06:12:02 1.9 C 4.3 g/m*3 1.9 C 0 km/h
272 17-11-2007 06:24:02 1.9 C 4.36 g/m*3 1.9 C 0 km/h
273 17-11-2007 06:36:02 1.9 C 4.36 g/m*3 1.9 C 0 km/h
274 17-11-2007 06:48:03 1.9 C 4.36 g/m*3 1.9 C 0 km/h
275 17-11-2007 07:00:03 1.9 C 4.36 g/m*3 1.9 C 0 km/h
Sensor: Nr:Datum:Temp:Abs-Feuchte:Windchill:Wind:
Aussen-T/F 276 17-11-2007 07:12:02 1.9 C 4.36 g/m*3 1.9 C 0 km/h
277 17-11-2007 07:24:02 1.9 C 4.36 g/m*3 1.9 C 0 km/h
278 17-11-2007 07:36:02 1.9 C 4.36 g/m*3 1.9 C 0 km/h
279 17-11-2007 07:48:02 1.9 C 4.36 g/m*3 1.9 C 0 km/h
280 17-11-2007 08:00:02 2 C 4.39 g/m*3 2 C 0 km/h
281 17-11-2007 08:12:02 2 C 4.39 g/m*3 2 C 0 km/h
282 17-11-2007 08:24:02 2.1 C 4.42 g/m*3 2.1 C 0 km/h
283 17-11-2007 08:36:02 2.2 C 4.45 g/m*3 2.2 C 0 km/h
284 17-11-2007 08:48:03 2.2 C 4.45 g/m*3 2.2 C 0 km/h
285 17-11-2007 09:00:03 2.2 C 4.45 g/m*3 2.2 C 0 km/h
286 17-11-2007 09:12:02 2.3 C 4.48 g/m*3 2.3 C 0 km/h
287 17-11-2007 09:24:02 2.3 C 4.42 g/m*3 2.3 C 0 km/h
288 17-11-2007 09:36:02 2.4 C 4.4 g/m*3 2.4 C 0 km/h
289 17-11-2007 09:48:02 2.6 C 4.46 g/m*3 2.6 C 0 km/h
290 17-11-2007 10:00:02 2.7 C 4.49 g/m*3 2.7 C 0 km/h
291 17-11-2007 10:12:02 2.7 C 4.49 g/m*3 2.7 C 0 km/h
292 17-11-2007 10:24:02 3 C 4.46 g/m*3 3 C 0 km/h
293 17-11-2007 10:36:02 3.1 C 4.43 g/m*3 3.1 C 0 km/h
294 17-11-2007 10:48:02 3.2 C 4.4 g/m*3 3.2 C 0 km/h
295 17-11-2007 11:00:02 3.3 C 4.43 g/m*3 3.3 C 0 km/h
296 17-11-2007 11:12:02 3.4 C 4.46 g/m*3 3.4 C 0 km/h
297 17-11-2007 11:24:02 3.7 C 4.49 g/m*3 3.7 C 0 km/h
298 17-11-2007 11:36:02 4.1 C 4.48 g/m*3 4.1 C 0 km/h
299 17-11-2007 11:48:03 4.2 C 4.51 g/m*3 4.2 C 0 km/h
300 17-11-2007 12:00:03 4.2 C 4.45 g/m*3 4.2 C 0 km/h
Sensor: Nr:Datum:Temp:Abs-Feuchte:Windchill:Wind:
Aussen-T/F 301 17-11-2007 12:12:03 4.4 C 4.51 g/m*3 4.4 C 0 km/h
302 17-11-2007 12:24:03 4.7 C 4.6 g/m*3 4.7 C 0 km/h
303 17-11-2007 12:36:03 5.1 C 4.65 g/m*3 5.1 C 0 km/h
304 17-11-2007 12:48:02 5.4 C 4.67 g/m*3 5.4 C 0 km/h
305 17-11-2007 13:00:02 5.5 C 4.71 g/m*3 5.5 C 0 km/h
306 17-11-2007 13:12:02 5.5 C 4.64 g/m*3 5.5 C 0 km/h
307 17-11-2007 13:24:02 5.6 C 4.81 g/m*3 5.6 C 0 km/h
308 17-11-2007 13:36:02 5.7 C 4.77 g/m*3 5.7 C 0 km/h
309 17-11-2007 13:48:02 6 C 4.86 g/m*3 6 C 0 km/h
310 17-11-2007 14:00:02 6.3 C 4.96 g/m*3 6.3 C 0 km/h
311 17-11-2007 14:12:02 6.6 C 4.98 g/m*3 6.6 C 0 km/h
312 17-11-2007 14:24:02 6.6 C 4.98 g/m*3 6.6 C 0 km/h
313 17-11-2007 14:36:02 6.5 C 4.95 g/m*3 6.5 C 0 km/h
314 17-11-2007 14:48:03 6.3 C 4.96 g/m*3 6.3 C 0 km/h
315 17-11-2007 15:00:03 6.3 C 5.03 g/m*3 6.3 C 0 km/h
316 17-11-2007 15:12:03 6.3 C 5.03 g/m*3 6.3 C 0 km/h
317 17-11-2007 15:24:03 6.2 C 5 g/m*3 6.2 C 0 km/h
318 17-11-2007 15:36:03 6.2 C 5.07 g/m*3 6.2 C 0 km/h
319 17-11-2007 15:48:01 6 C 5.01 g/m*3 6 C 0 km/h
320 17-11-2007 16:00:01 5.9 C 5.05 g/m*3 5.9 C 0 km/h
321 17-11-2007 16:12:01 5.6 C 5.02 g/m*3 5.6 C 0 km/h
322 17-11-2007 16:24:01 5.4 C 5.02 g/m*3 5.4 C 0 km/h
323 17-11-2007 16:36:01 5.3 C 5.13 g/m*3 5.3 C 0 km/h
324 17-11-2007 16:48:03 5 C 5.1 g/m*3 5 C 0 km/h
325 17-11-2007 17:00:03 4.8 C 5.16 g/m*3 4.8 C 0 km/h
Sensor: Nr:Datum:Temp:Abs-Feuchte:Windchill:Wind:
Aussen-T/F 326 17-11-2007 17:12:03 4.7 C 5.13 g/m*3 4.7 C 0 km/h
327 17-11-2007 17:24:02 4.6 C 5.16 g/m*3 4.6 C 0 km/h
328 17-11-2007 17:36:02 4.5 C 5.13 g/m*3 4.5 C 0 km/h
329 17-11-2007 17:48:02 4.4 C 5.16 g/m*3 4.4 C 0 km/h
330 17-11-2007 18:00:02 4.3 C 5.12 g/m*3 4.3 C 0 km/h
331 17-11-2007 18:12:02 4.3 C 5.19 g/m*3 4.3 C 0 km/h
332 17-11-2007 18:24:01 4.2 C 5.15 g/m*3 4.2 C 0 km/h
333 17-11-2007 18:36:02 4.2 C 5.15 g/m*3 4.2 C 0 km/h
334 17-11-2007 18:48:02 4.2 C 5.15 g/m*3 4.2 C 0 km/h
335 17-11-2007 19:00:02 4.1 C 5.12 g/m*3 4.1 C 0 km/h
336 17-11-2007 19:12:02 4 C 5.15 g/m*3 4 C 0 km/h
337 17-11-2007 19:24:02 4 C 5.15 g/m*3 4 C 0 km/h
338 17-11-2007 19:36:02 4 C 5.15 g/m*3 4 C 0 km/h
339 17-11-2007 19:48:02 4.3 C 5.25 g/m*3 4.3 C 0 km/h
340 17-11-2007 20:00:02 4.1 C 5.18 g/m*3 4.1 C 0 km/h
341 17-11-2007 20:12:02 4.3 C 5.25 g/m*3 4.3 C 0 km/h
342 17-11-2007 20:24:02 4 C 5.15 g/m*3 4 C 0 km/h
343 17-11-2007 20:36:02 4 C 5.15 g/m*3 4 C 0 km/h
344 17-11-2007 20:48:02 3.9 C 5.18 g/m*3 3.9 C 0 km/h
345 17-11-2007 21:00:02 4.4 C 5.35 g/m*3 4.4 C 0 km/h
346 17-11-2007 21:12:02 3.8 C 5.21 g/m*3 3.8 C 0 km/h
347 17-11-2007 21:24:03 3.7 C 5.17 g/m*3 3.7 C 0 km/h
348 17-11-2007 21:36:03 3.7 C 5.17 g/m*3 3.7 C 0 km/h
349 17-11-2007 21:48:02 3.6 C 5.14 g/m*3 3.6 C 0 km/h
350 17-11-2007 22:00:02 3.6 C 5.14 g/m*3 3.6 C 0 km/h
Sensor: Nr:Datum:Temp:Abs-Feuchte:Windchill:Wind:
Aussen-T/F 351 17-11-2007 22:12:02 3.6 C 5.14 g/m*3 3.6 C 0 km/h
352 17-11-2007 22:24:02 3.5 C 5.16 g/m*3 3.5 C 0 km/h
353 17-11-2007 22:36:02 3.5 C 5.16 g/m*3 3.5 C 0 km/h
354 17-11-2007 22:48:02 3.5 C 5.16 g/m*3 3.5 C 0 km/h
355 17-11-2007 23:00:02 3.5 C 5.16 g/m*3 3.5 C 0 km/h
356 17-11-2007 23:12:01 3.4 C 5.13 g/m*3 3.4 C 0 km/h
357 17-11-2007 23:24:02 3.4 C 5.13 g/m*3 3.4 C 0 km/h
358 17-11-2007 23:36:02 3.4 C 5.19 g/m*3 3.4 C 0 km/h
359 17-11-2007 23:48:02 3.3 C 5.1 g/m*3 3.3 C 0 km/h

Legende:
   Min
   Max


Maximal/Minimal-Werte vom 17.04.2019 - 19.05.2019

Sensor Min Max Avg
Temp
(Aussen-T/F)
2.2 °C
13-05-2019  06:50:00
26.6 °C
24-04-2019  17:05:00
11.51 °C

Die Daten stammen von einer Davis Vantage Pro 2 Wetter-Station und werden unter Linux mit der Software wview2wettercgi und aufbereitet. Alle Angaben erfolgen ohne Gewähr für ihre Vollständigkeit oder Richtigkeit.
Kontakt: Rainer Krienke krienke@uni-koblenz.de . Meine Webseiten an der Uni Koblenz oder privat.
Version: $Revision: 0.78 $